首页
METAR-TAF:

METAR-TAF

机场 :

北京, 中华人民共和国

北京首都国际机场

纬度: 39-56N, 经度: 116-17E, 海拔: 55米

当前天气观测

该预报发布于19分钟前的03:00 UTC
风速4节,风向,在北转东北东转东南之间变化
温度 1°C
湿度 34%
气压 1026 hPa
能见度10公里或以上
1500米以下无云,无积雨云

METAR: ZBAA 200300Z 08002MPS 030V120 CAVOK 01/M13 Q1026 NOSIG

时间: 11:19 (03:19 UTC)

预报

该预报发布于5小时和59分钟前的21:20 UTC
预报有效从20日的 00点(UTC)到 20日的 24点(UTC)
风速8节,风向
能见度10公里或以上
1500米以下无云,无积雨云

TAF: ZBAA 192120Z 2000/2024 36004MPS CAVOK TX08/2007Z TNM06/21Z

超过4000个机场的气象观测和天气预报(METAR&TAF报告)。

可查询的气象台以黄色和红色小点在地图上表示。

将鼠标移到小点上方,可查看气象台名称。

然后点击查看天气观测和预报。

如需切换地图:点击带黑十字的绿色按钮放大地图;点击带横线的绿色按钮缩小地图;或者点击绿色箭头查看邻近地区的地图。


METAR-TAF: